createdAt,value
2022-12-31T00:00:30.219Z,11.99
2022-12-31T00:05:27.795Z,11.94
2022-12-31T00:10:18.626Z,11.88
2022-12-31T00:15:11.790Z,11.87
2022-12-31T00:20:02.305Z,11.80
2022-12-31T00:24:57.893Z,11.79
2022-12-31T00:29:47.585Z,11.74
2022-12-31T00:34:39.653Z,11.70
2022-12-31T00:39:29.360Z,11.67
2022-12-31T00:44:22.417Z,11.66
2022-12-31T00:49:18.345Z,11.64
2022-12-31T00:54:12.554Z,11.64
2022-12-31T00:59:03.421Z,11.64
2022-12-31T01:04:03.850Z,11.62
2022-12-31T01:08:56.067Z,11.59
2022-12-31T01:13:54.683Z,11.59
2022-12-31T01:18:50.868Z,11.56
2022-12-31T01:23:43.662Z,11.57
2022-12-31T01:28:35.201Z,11.54
2022-12-31T01:33:27.091Z,11.50
2022-12-31T01:38:21.751Z,11.45
2022-12-31T01:43:26.027Z,11.44
2022-12-31T01:48:18.568Z,11.38
2022-12-31T01:53:13.477Z,11.36
2022-12-31T01:58:09.286Z,11.31
2022-12-31T02:03:04.041Z,11.25
2022-12-31T02:07:56.092Z,11.22
2022-12-31T02:12:49.061Z,11.13
2022-12-31T02:17:45.627Z,11.09
2022-12-31T02:22:54.209Z,11.02
2022-12-31T02:27:58.135Z,11.02
2022-12-31T02:33:08.315Z,11.00
2022-12-31T02:38:06.232Z,10.96
2022-12-31T02:42:58.966Z,10.90
2022-12-31T02:47:58.614Z,10.84
2022-12-31T02:52:58.643Z,10.77
2022-12-31T02:58:04.615Z,10.73
2022-12-31T03:02:56.532Z,10.69
2022-12-31T03:07:47.627Z,10.69
2022-12-31T03:12:52.388Z,10.68
2022-12-31T03:17:48.993Z,10.66
2022-12-31T03:22:53.263Z,10.64
2022-12-31T03:27:52.210Z,10.62
2022-12-31T03:32:53.742Z,10.54
2022-12-31T03:37:44.714Z,10.51
2022-12-31T03:42:37.174Z,10.49
2022-12-31T03:47:30.227Z,10.47
2022-12-31T03:52:34.892Z,10.46
2022-12-31T03:57:28.783Z,10.45
2022-12-31T04:02:28.122Z,10.42
2022-12-31T04:07:23.583Z,10.43
2022-12-31T04:12:16.852Z,10.43
2022-12-31T04:17:10.148Z,10.48
2022-12-31T04:21:59.901Z,10.59
2022-12-31T04:26:53.324Z,10.71
2022-12-31T04:31:48.215Z,10.81
2022-12-31T04:36:41.595Z,10.89
2022-12-31T04:41:37.032Z,10.96
2022-12-31T04:46:42.921Z,11.04
2022-12-31T04:51:46.153Z,11.09
2022-12-31T04:56:41.009Z,11.15
2022-12-31T05:01:30.720Z,11.26
2022-12-31T05:06:22.343Z,11.27
2022-12-31T05:11:20.393Z,11.30
2022-12-31T05:16:15.790Z,11.34
2022-12-31T05:21:29.518Z,11.33
2022-12-31T05:26:23.806Z,11.34
2022-12-31T05:31:21.136Z,11.38
2022-12-31T05:36:13.164Z,11.41
2022-12-31T05:41:06.349Z,11.44
2022-12-31T05:46:05.178Z,11.41
2022-12-31T05:50:55.854Z,11.41
2022-12-31T05:55:46.336Z,11.44
2022-12-31T06:00:38.998Z,11.47
2022-12-31T06:05:38.205Z,11.48
2022-12-31T06:10:35.894Z,11.56
2022-12-31T06:15:30.562Z,11.65
2022-12-31T06:20:38.599Z,11.80
2022-12-31T06:25:39.364Z,12.00
2022-12-31T06:30:31.082Z,12.20
2022-12-31T06:35:31.183Z,12.34
2022-12-31T06:40:22.302Z,12.50
2022-12-31T06:45:19.053Z,12.55
2022-12-31T06:50:17.002Z,12.55
2022-12-31T06:55:17.058Z,12.63
2022-12-31T07:00:11.434Z,12.62
2022-12-31T07:05:16.241Z,12.63
2022-12-31T07:10:17.212Z,12.70
2022-12-31T07:15:09.751Z,12.67
2022-12-31T07:20:04.763Z,12.73
2022-12-31T07:25:02.100Z,12.84
2022-12-31T07:30:03.075Z,12.88
2022-12-31T07:35:01.215Z,12.84
2022-12-31T07:39:57.816Z,12.86
2022-12-31T07:45:09.198Z,12.81
2022-12-31T07:50:03.923Z,12.79
2022-12-31T07:54:59.156Z,12.77
2022-12-31T07:59:57.861Z,12.74
2022-12-31T08:05:00.558Z,12.70
2022-12-31T08:10:01.111Z,12.62
2022-12-31T08:14:56.748Z,12.52
2022-12-31T08:19:53.525Z,12.46
2022-12-31T08:24:58.088Z,12.40
2022-12-31T08:30:00.149Z,12.38
2022-12-31T08:40:20.002Z,12.40
2022-12-31T08:45:17.519Z,12.46
2022-12-31T08:50:11.666Z,12.47
2022-12-31T08:55:05.930Z,12.56
2022-12-31T09:00:06.034Z,12.68
2022-12-31T09:05:07.943Z,12.81
2022-12-31T09:10:12.816Z,12.92
2022-12-31T09:15:09.463Z,13.14
2022-12-31T09:20:04.461Z,13.20
2022-12-31T09:24:58.523Z,13.34
2022-12-31T09:29:54.031Z,13.53
2022-12-31T09:34:50.545Z,13.67
2022-12-31T09:39:48.230Z,13.79
2022-12-31T09:44:51.094Z,13.88
2022-12-31T09:50:03.959Z,14.03
2022-12-31T09:55:03.662Z,14.09
2022-12-31T09:59:58.588Z,14.07
2022-12-31T10:05:19.408Z,14.15
2022-12-31T10:10:18.268Z,14.20
2022-12-31T10:15:28.951Z,14.25
2022-12-31T10:20:43.358Z,14.30
2022-12-31T10:25:43.435Z,14.37
2022-12-31T10:30:48.194Z,14.38
2022-12-31T10:35:46.459Z,14.39
2022-12-31T10:40:51.866Z,14.39
2022-12-31T10:46:05.337Z,14.29
2022-12-31T10:51:10.595Z,14.17
2022-12-31T10:56:16.675Z,14.13
2022-12-31T11:01:11.352Z,14.10
2022-12-31T11:06:18.960Z,14.20
2022-12-31T11:11:25.688Z,14.36
2022-12-31T11:16:32.275Z,14.56
2022-12-31T11:21:41.821Z,14.64
2022-12-31T11:26:40.578Z,14.69
2022-12-31T11:31:44.335Z,14.71
2022-12-31T11:36:48.194Z,14.63
2022-12-31T11:41:46.725Z,14.57
2022-12-31T11:46:49.179Z,14.54
2022-12-31T11:51:50.613Z,14.48
2022-12-31T11:56:44.262Z,14.47
2022-12-31T12:01:37.325Z,14.51
2022-12-31T12:11:46.615Z,14.46
2022-12-31T12:16:37.504Z,14.47
2022-12-31T12:21:30.906Z,14.45
2022-12-31T12:26:36.856Z,14.44
2022-12-31T12:31:33.040Z,14.50
2022-12-31T12:36:30.102Z,14.53
2022-12-31T12:41:28.707Z,14.51
2022-12-31T12:46:24.207Z,14.52
2022-12-31T12:51:25.516Z,14.54
2022-12-31T12:56:24.574Z,14.46
2022-12-31T13:01:28.224Z,14.39
2022-12-31T13:06:45.849Z,14.33
2022-12-31T13:11:38.260Z,14.25
2022-12-31T13:16:40.098Z,14.26
2022-12-31T13:21:54.995Z,14.28
2022-12-31T13:26:48.912Z,14.29
2022-12-31T13:31:43.555Z,14.30
2022-12-31T13:36:46.206Z,14.35
2022-12-31T13:41:38.373Z,14.39
2022-12-31T13:46:38.669Z,14.39
2022-12-31T13:51:41.602Z,14.38
2022-12-31T13:56:42.060Z,14.46
2022-12-31T14:01:36.662Z,14.41
2022-12-31T14:06:32.507Z,14.32
2022-12-31T14:11:26.220Z,14.30
2022-12-31T14:16:28.802Z,14.24
2022-12-31T14:21:25.083Z,14.18
2022-12-31T14:26:23.979Z,14.15
2022-12-31T14:31:19.659Z,14.14
2022-12-31T14:36:31.653Z,14.15
2022-12-31T14:44:31.856Z,13.99
2022-12-31T14:49:37.020Z,14.19
2022-12-31T14:54:38.267Z,14.30
2022-12-31T14:59:38.805Z,14.45
2022-12-31T15:04:36.279Z,14.59
2022-12-31T15:09:47.101Z,14.64
2022-12-31T15:14:57.779Z,14.69
2022-12-31T15:20:17.480Z,14.75
2022-12-31T15:25:34.005Z,14.80
2022-12-31T15:30:47.022Z,14.83
2022-12-31T15:35:50.681Z,14.89
2022-12-31T15:40:48.651Z,14.77
2022-12-31T15:45:48.505Z,14.88
2022-12-31T15:50:45.505Z,14.84
2022-12-31T15:55:41.712Z,14.88
2022-12-31T16:00:51.191Z,14.61
2022-12-31T16:05:42.363Z,14.86
2022-12-31T16:10:35.886Z,14.89
2022-12-31T16:15:29.675Z,14.85
2022-12-31T16:20:30.586Z,14.94
2022-12-31T16:25:33.358Z,14.93
2022-12-31T16:30:30.731Z,14.84
2022-12-31T16:35:31.888Z,14.91
2022-12-31T16:40:27.518Z,14.87
2022-12-31T16:45:31.832Z,14.91
2022-12-31T16:50:27.267Z,14.86
2022-12-31T16:55:27.758Z,14.88
2022-12-31T17:00:21.308Z,14.54
2022-12-31T17:05:23.364Z,14.82
2022-12-31T17:10:28.035Z,14.80
2022-12-31T17:15:24.517Z,14.76
2022-12-31T17:20:25.795Z,14.81
2022-12-31T17:25:30.570Z,14.79
2022-12-31T17:30:40.709Z,14.94
2022-12-31T17:35:34.126Z,14.96
2022-12-31T17:40:52.426Z,14.97
2022-12-31T17:45:46.080Z,14.96
2022-12-31T17:50:36.342Z,15.02
2022-12-31T17:55:27.332Z,15.03
2022-12-31T18:00:24.768Z,15.04
2022-12-31T18:05:21.493Z,15.06
2022-12-31T18:10:13.538Z,15.10
2022-12-31T18:15:04.981Z,15.06
2022-12-31T18:20:06.830Z,15.03
2022-12-31T18:24:59.311Z,15.06
2022-12-31T18:30:00.595Z,15.11
2022-12-31T18:35:04.396Z,15.10
2022-12-31T18:40:00.770Z,15.21
2022-12-31T18:45:04.929Z,15.09
2022-12-31T18:49:56.061Z,15.15
2022-12-31T18:55:06.257Z,15.14
2022-12-31T19:00:13.382Z,15.17
2022-12-31T19:05:06.814Z,15.16
2022-12-31T19:10:20.899Z,15.16
2022-12-31T19:15:29.613Z,15.12
2022-12-31T19:20:24.228Z,15.05
2022-12-31T19:25:49.450Z,14.99
2022-12-31T19:30:46.019Z,14.83
2022-12-31T19:35:57.069Z,14.73
2022-12-31T19:40:53.888Z,14.89
2022-12-31T19:45:49.474Z,14.81
2022-12-31T19:50:44.373Z,14.78
2022-12-31T19:55:41.776Z,14.81
2022-12-31T20:00:37.993Z,14.79
2022-12-31T20:05:31.270Z,14.77
2022-12-31T20:10:28.909Z,14.74
2022-12-31T20:15:18.788Z,14.84
2022-12-31T20:20:12.558Z,14.75
2022-12-31T20:25:05.678Z,14.81
2022-12-31T20:29:57.118Z,14.82
2022-12-31T20:34:57.342Z,14.87
2022-12-31T20:39:59.938Z,14.92
2022-12-31T20:53:15.115Z,14.75
2022-12-31T20:58:12.382Z,14.75
2022-12-31T21:03:30.438Z,14.88
2022-12-31T21:08:34.463Z,14.96
2022-12-31T21:13:26.637Z,15.00
2022-12-31T21:18:48.052Z,15.02
2022-12-31T21:23:51.440Z,15.05
2022-12-31T21:28:50.686Z,15.01
2022-12-31T21:33:41.703Z,14.35
2022-12-31T21:38:33.068Z,14.79
2022-12-31T21:43:26.786Z,14.93
2022-12-31T21:48:25.281Z,14.93
2022-12-31T21:53:23.724Z,14.99
2022-12-31T21:58:26.019Z,15.01
2022-12-31T22:03:29.967Z,14.98
2022-12-31T22:08:26.339Z,15.02
2022-12-31T22:13:19.669Z,14.98
2022-12-31T22:18:15.213Z,14.96
2022-12-31T22:23:12.965Z,14.87
2022-12-31T22:28:36.888Z,14.89
2022-12-31T22:33:16.199Z,14.91
2022-12-31T22:38:13.912Z,14.88
2022-12-31T22:43:09.581Z,14.87
2022-12-31T22:48:03.321Z,14.76
2022-12-31T22:52:54.322Z,14.86
2022-12-31T22:57:49.274Z,14.69
2022-12-31T23:02:45.017Z,14.82
2022-12-31T23:07:35.194Z,14.89
2022-12-31T23:12:25.405Z,14.89
2022-12-31T23:17:34.486Z,14.90
2022-12-31T23:22:39.753Z,14.94
2022-12-31T23:27:33.845Z,14.92
2022-12-31T23:32:29.863Z,14.92
2022-12-31T23:37:20.839Z,14.90
2022-12-31T23:42:12.224Z,14.83
2022-12-31T23:47:02.358Z,14.76
2022-12-31T23:51:55.770Z,14.83
2022-12-31T23:56:47.594Z,14.81
